Polarstern — DBLK — position and weather

sailwx.info

Track history (hours):
 
Tides and Currents Weather Stations Pressure Air Temp Water Temp Dewpoint Dewpoint Depression Visibility Wind Speed Wind Dir Waves Ship Positions

Oceanographic research ship Polarstern (Germany)

Detailed information on ship capabilities available from University of Delaware's Ocean Information Center and ARCUS's ALIAS (Arctic Logistics Information and Support) project.

Last reported at 2015-Sep-03 03:00 UTC. Time now 2015-Sep-03 04:33 UTC.
Position N 87°00' E 055°54'.

Length 117.9 m; beam 25 m; draft 10.7 m.

MMSI: 211202460.

Wind from 350 at 8 knots

Barometer 1007.9 mb
Air temperature -2.3 ° C
Dewpoint -2.4 ° C
Water temperature -1.7 ° C

Date/timePositionNaut miles runAvg speedWind from/ knotsBaromVisibWave heightAir tempDewpointWater temp
2015-Sep-03 03:00N 87°00' E 055°54'0 0.3 350 / 81007.9 -2.3-2.4-1.7
2015-Sep-03 02:00N 87°00' E 056°00'3 3.1 350 / 101007.6 -2.2-2.3-1.8
2015-Sep-03 01:00N 87°00' E 057°00'2 2.2 350 / 101007.6 -2.2-2.2-1.8
2015-Sep-03 00:00N 87°00' E 057°42'2 1.6 320 / 81007.5 -2.2-2.3-1.8
2015-Sep-02 23:00N 87°00' E 058°12'0 0.0 320 / 81007.6 -2.5-2.9-1.7
2015-Sep-02 22:00N 87°00' E 058°12'0 0.0 330 / 101007.6 -2.9-3.1-1.7
2015-Sep-02 21:00N 87°00' E 058°12'0 0.3 330 / 101007.6 -2.3-2.4-1.7
2015-Sep-02 20:00N 87°00' E 058°18'0 0.0 320 / 101007.5 -2.1-2.3-1.7
2015-Sep-02 19:00N 87°00' E 058°18'1 0.3 330 / 121007.5 -2.4-2.7-1.7
2015-Sep-02 17:00N 87°00' E 058°30'1 0.9 310 / 161007.7 -2.5-2.5-1.8
2015-Sep-02 16:00N 87°00' E 058°48'0 0.0 310 / 161008.0 -2.8-2.9-1.7
2015-Sep-02 14:00N 87°00' E 058°48'0 0.0 310 / 171008.6 -3.0-3.2-1.7
2015-Sep-02 13:00N 87°00' E 058°48'0 0.0 300 / 171009.0 -3.3-3.5-1.7
2015-Sep-02 12:00N 87°00' E 058°48'0 0.0 300 / 191009.5 1.1 -3.4-3.6-1.6
2015-Sep-02 11:00N 87°00' E 058°48'0 0.3 290 / 171009.9 -3.5-3.7-1.7
2015-Sep-02 10:00N 87°00' E 058°42'0 0.0 300 / 171010.5 -3.6-3.8-1.7
2015-Sep-02 09:00N 87°00' E 058°42'0 0.1 310 / 171011.0 5.4 -3.9-4.3-1.7
2015-Sep-02 06:00N 87°00' E 058°36'0 0.0 300 / 171011.9 5.4 -2.5-2.7-1.7
2015-Sep-02 05:00N 87°00' E 058°36'6 2.1 310 / 191012.5 -2.3-2.5-1.7
2015-Sep-02 02:00N 86°54' E 059°18'6 3.2 310 / 191013.8 -2.8-3.0-1.8
2015-Sep-02 00:00N 86°48' E 060°00'1 0.7 290 / 161014.7 -3.9-4.1-1.8
2015-Sep-01 23:00N 86°48' E 060°12'1 1.3 290 / 161015.1 -5.1-5.8-1.8
2015-Sep-01 22:00N 86°48' E 060°36'6 6.1 300 / 141015.6 -5.4-5.9-1.8
2015-Sep-01 21:00N 86°42' E 060°54'1 0.7 300 / 121016.0 -5.8-6.0-1.8
2015-Sep-01 20:00N 86°42' E 061°06'0 0.0 320 / 121016.1 -5.5-5.8-1.7
2015-Sep-01 19:00N 86°42' E 061°06'0 0.3 330 / 161016.3 -6.7-7.2-1.7
2015-Sep-01 18:00N 86°42' E 061°12'0 0.3 320 / 161016.5 0.5 -5.6-5.9-1.7
2015-Sep-01 17:00N 86°42' E 061°18'0 0.0 330 / 121016.4 -5.7-6.3-1.7
2015-Sep-01 16:00N 86°42' E 061°18'0 0.3 340 / 101016.4 -4.2-4.7-1.7
2015-Sep-01 15:00N 86°42' E 061°24'6 3.0 350 / 121016.6 5.4 -3.2-3.3-1.7
2015-Sep-01 13:00N 86°36' E 061°24'6 6.0 010 / 81016.3 -2.7-3.0-1.7
2015-Sep-01 12:00N 86°30' E 061°18'2 1.8 020 / 81016.0 2.2 -2.4-2.5-1.8
2015-Sep-01 11:00N 86°30' E 060°48'6 6.2 030 / 61015.8 -2.8-3.1-1.8
2015-Sep-01 10:00N 86°24' E 060°24'1 0.8 040 / 81015.8 -2.8-3.1-1.8
2015-Sep-01 09:00N 86°24' E 060°12'0 0.0 010 / 81015.4 2.2 -2.8-2.9-1.7
2015-Sep-01 08:00N 86°24' E 060°12'0 0.0 360 / 81015.0 -3.0-3.2-1.7
2015-Sep-01 07:00N 86°24' E 060°12'0 0.0 350 / 101014.7 -3.5-3.5-1.7
2015-Sep-01 06:00N 86°24' E 060°12'1 1.1 340 / 101014.5 2.2 -3.8-4.2-1.8
2015-Sep-01 05:00N 86°24' E 059°54'6 6.1 330 / 121014.5 -4.5-4.8-1.8
2015-Sep-01 04:00N 86°18' E 059°36'0 0.2 330 / 121014.5 -5.1-5.5-1.7
2015-Sep-01 02:00N 86°18' E 059°30'6 6.4 330 / 161014.7 -6.0-6.6-1.8
2015-Sep-01 01:00N 86°12' E 060°06'6 6.2 320 / 161014.9 -6.1-6.8-1.8
2015-Sep-01 00:00N 86°06' E 059°42'0 0.4 320 / 171014.9 -6.5-7.1-1.8
2015-Aug-31 23:00N 86°06' E 059°48'0 0.0 320 / 161015.2 -6.4-6.9-1.7
2015-Aug-31 22:00N 86°06' E 059°48'0 0.0 320 / 141015.4 -6.5-7.1-1.7
2015-Aug-31 21:00N 86°06' E 059°48'0 0.0 330 / 161015.4 -6.1-6.8-1.7
2015-Aug-31 20:00N 86°06' E 059°48'0 0.0 330 / 161015.5 -6.1-6.5-1.7
2015-Aug-31 19:00N 86°06' E 059°48'0 0.0 340 / 141015.6 -6.2-6.5-1.8
2015-Aug-31 18:00N 86°06' E 059°48'0 0.4 340 / 161015.8 5.4 -6.7-7.1-1.7
2015-Aug-31 17:00N 86°06' E 059°54'0 0.0 350 / 161016.0 -6.7-7.1-1.8
2015-Aug-31 16:00N 86°06' E 059°54'0 0.4 350 / 141015.8 -6.9-7.4-1.8
2015-Aug-31 15:00N 86°06' E 060°00'2 2.0 350 / 141015.9 5.4 -6.8-7.3-1.8
2015-Aug-31 14:00N 86°06' E 060°30'1 0.8 350 / 161015.5 -6.2-7.1-1.8
2015-Aug-31 13:00N 86°06' E 060°18'0 0.4 360 / 171015.6 -6.1-6.7-1.8
2015-Aug-31 12:00N 86°06' E 060°12'6 6.1 360 / 171015.5 5.4 -5.6-6.3-1.8
2015-Aug-31 11:00N 86°00' E 060°00'0 0.4 360 / 171015.7 -5.8-6.2-1.8
2015-Aug-31 10:00N 86°00' E 059°54'0 0.0 360 / 171015.4 -5.9-6.8-1.8
2015-Aug-31 09:00N 86°00' E 059°54'0 0.4 360 / 141015.1 1.1 -5.3-5.7-1.8
2015-Aug-31 08:00N 86°00' E 060°00'6 6.0 010 / 141014.8 -4.6-5.5-1.8
2015-Aug-31 07:00N 85°54' E 059°54'1 0.9 020 / 161014.8 -4.7-5.2-1.8
2015-Aug-31 06:00N 85°54' E 059°42'2 1.7 030 / 141014.7 5.4 -4.8-5.8-1.8
2015-Aug-31 05:00N 85°54' E 060°06'6 6.0 020 / 141014.5 -5.4-6.2-1.8
2015-Aug-31 04:00N 85°48' E 060°00'0 0.2 010 / 141014.5 -5.7-6.6-1.8
2015-Aug-31 02:00N 85°48' E 060°06'0 0.2 030 / 141014.2 -4.7-5.2-1.8
2015-Aug-31 00:00N 85°48' E 060°00'2 1.8 030 / 141013.8 -3.3-3.6-1.8
2015-Aug-30 23:00N 85°48' E 060°24'6 3.2 040 / 121013.6 -3.6-4.0-1.8
2015-Aug-30 21:00N 85°42' E 059°54'6 6.0 040 / 141013.1 -6.5-7.6-1.8
2015-Aug-30 20:00N 85°36' E 059°54'0 0.5 050 / 161012.5 -7.1-8.0-1.8
2015-Aug-30 19:00N 85°36' E 059°48'0 0.5 060 / 141012.1 -5.4-6.0-1.8
2015-Aug-30 18:00N 85°36' E 059°54'0 0.5 060 / 161011.8 5.4 -5.4-6.0-1.8
2015-Aug-30 17:00N 85°36' E 060°00'1 0.9 060 / 161011.4 -4.6-5.1-1.8
2015-Aug-30 16:00N 85°36' E 060°12'1 1.4 050 / 161011.2 -4.1-4.7-1.8
2015-Aug-30 15:00N 85°36' E 060°30'6 6.2 040 / 141010.7 2.2 -5.1-5.6-1.8
2015-Aug-30 14:00N 85°30' E 060°12'1 0.3 040 / 141010.4 -6.0-6.9-1.8
2015-Aug-30 11:00N 85°30' E 060°24'0 0.0 040 / 81010.0 -5.9-6.8-1.8
2015-Aug-30 10:00N 85°30' E 060°24'0 0.0 050 / 101009.8 -6.7-7.6-1.8
2015-Aug-30 09:00N 85°30' E 060°24'6 6.1 060 / 121009.510.8 -6.5-7.1-1.8
2015-Aug-30 08:00N 85°24' E 060°12'6 3.2 080 / 121009.3 -5.3-5.9-1.8
2015-Aug-30 06:00N 85°18' E 059°48'0 0.0 080 / 141008.8 2.2 -4.9-5.3-1.8
2015-Aug-30 05:00N 85°18' E 059°48'0 0.5 080 / 141008.7 -4.9-5.2-1.7
2015-Aug-30 04:00N 85°18' E 059°54'0 0.0 090 / 141008.6 -4.4-4.9-1.8
2015-Aug-30 03:00N 85°18' E 059°54'0 0.0 090 / 141008.8 -4.3-4.6-1.8
2015-Aug-30 02:00N 85°18' E 059°54'0 0.0 080 / 121009.0 -4.8-5.2-1.7
2015-Aug-30 01:00N 85°18' E 059°54'0 0.0 100 / 121009.3 -5.3-5.7-1.8
2015-Aug-30 00:00N 85°18' E 059°54'0 0.0 110 / 121009.6 -5.0-5.4-1.7
2015-Aug-29 23:00N 85°18' E 059°54'0 0.0 120 / 121010.0 -5.1-5.4-1.7
2015-Aug-29 22:00N 85°18' E 059°54'0 0.0 130 / 101010.0 -4.7-5.0-1.8
2015-Aug-29 21:00N 85°18' E 059°54'0 0.0 150 / 121010.3 -4.8-5.2-1.8
2015-Aug-29 20:00N 85°18' E 059°54'0 0.2 140 / 121010.6 -4.6-5.1-1.8
2015-Aug-29 18:00N 85°18' E 060°00'0 0.2 160 / 101011.3 2.2 -4.8-5.3-1.7
2015-Aug-29 16:00N 85°18' E 060°06'0 0.5 170 / 101012.1 -5.5-5.9-1.7
2015-Aug-29 15:00N 85°18' E 060°00'0 0.0 190 / 121012.3 5.4 -6.1-6.8-1.7
2015-Aug-29 14:00N 85°18' E 060°00'7 6.7 180 / 121012.4 -7.2-7.8-1.8
2015-Aug-29 13:00N 85°12' E 059°24'7 6.7 190 / 141012.6 -5.9-6.3-1.8
2015-Aug-29 12:00N 85°18' E 058°48'9 4.7 200 / 141012.5 2.2 -4.3-4.8-1.8
2015-Aug-29 10:00N 85°18' E 056°54'4 3.9 130 / 161012.7 -1.4-1.5-1.8
2015-Aug-29 09:00N 85°18' E 056°06'7 6.7 120 / 161012.7 2.2 -1.5-1.8-1.8
2015-Aug-29 08:00N 85°12' E 055°30'7 3.5 110 / 161013.0 -1.7-1.9-1.8
2015-Aug-29 06:00N 85°12' E 054°06'8 7.8 110 / 171013.6 2.2 -1.7-1.7-1.8
2015-Aug-29 05:00N 85°18' E 053°06'6 6.5 110 / 161014.0 -1.6-1.8-1.8
2015-Aug-29 04:00N 85°12' E 052°36'6 5.5 100 / 161014.5 -1.8-1.8-1.8
2015-Aug-29 03:00N 85°12' E 051°30'5 5.0 110 / 141014.7 -1.9-2.0-1.8
2015-Aug-29 02:00N 85°12' E 050°30'3 3.0 110 / 141015.2 -2.2-2.3-1.8
2015-Aug-29 01:00N 85°12' E 049°54'6 5.5 110 / 161015.3 -2.3-2.8-1.8
2015-Aug-29 00:00N 85°12' E 048°48'9 4.6 120 / 161015.7 -2.2-2.4-1.8
2015-Aug-28 22:00N 85°06' E 047°24'3 3.1 110 / 161015.7 -2.7-2.8-1.8
2015-Aug-28 21:00N 85°06' E 046°48'5 5.1 110 / 161016.0 -2.8-3.4-1.8
2015-Aug-28 20:00N 85°06' E 045°48'6 5.6 110 / 171016.0 -2.8-3.2-1.8
2015-Aug-28 19:00N 85°06' E 044°42'4 3.6 110 / 171016.1 -3.0-3.3-1.8
2015-Aug-28 18:00N 85°06' E 044°00'3 3.1 110 / 191016.3 2.2 -2.7-3.0-1.8
2015-Aug-28 17:00N 85°06' E 043°24'4 4.1 110 / 171016.4 -2.5-2.9-1.8
2015-Aug-28 16:00N 85°06' E 042°36'2 1.5 110 / 171016.5 -2.3-2.8-1.8
2015-Aug-28 15:00N 85°06' E 042°18'1 0.5 120 / 171016.9 1.1 -2.0-2.3-1.7
2015-Aug-28 14:00N 85°06' E 042°24'0 0.0 110 / 161017.1 -1.7-1.9-1.7
2015-Aug-28 13:00N 85°06' E 042°24'0 0.0 100 / 141017.3 -2.0-2.1-1.7
2015-Aug-28 12:00N 85°06' E 042°24'1 0.5 100 / 141017.6 0.3 -2.7-3.0-1.7
2015-Aug-28 11:00N 85°06' E 042°30'0 0.0 100 / 161017.8 -3.2-3.6-1.7
2015-Aug-28 10:00N 85°06' E 042°30'0 0.0 100 / 171017.9 -3.4-4.1-1.7
2015-Aug-28 09:00N 85°06' E 042°30'1 0.5 110 / 141018.0 2.2 -2.6-3.0-1.7
2015-Aug-28 08:00N 85°06' E 042°36'0 0.0 110 / 141018.3 -2.7-3.1-1.7
2015-Aug-28 07:00N 85°06' E 042°36'0 0.0 100 / 161018.2 -2.9-3.3-1.7
2015-Aug-28 06:00N 85°06' E 042°36'1 0.5 110 / 161018.3 1.1 -2.6-2.8-1.7
2015-Aug-28 05:00N 85°06' E 042°42'1 1.0 110 / 161018.3 -2.5-2.8-1.7
2015-Aug-28 04:00N 85°06' E 042°30'7 6.5 110 / 141018.3 -2.6-2.8-1.8
2015-Aug-28 03:00N 85°00' E 042°00'1 1.0 100 / 161018.2 -2.7-3.1-1.8
2015-Aug-28 02:00N 85°00' E 041°48'2 2.1 110 / 161018.4 -2.7-3.1-1.8
2015-Aug-28 01:00N 85°00' E 041°24'7 7.0 110 / 161018.4 -2.7-2.9-1.8
2015-Aug-28 00:00N 84°54' E 040°42'4 3.7 110 / 141018.4 -2.8-3.2-1.8
2015-Aug-27 23:00N 84°54' E 040°00'3 3.2 120 / 141018.1 -2.5-2.6-1.8
2015-Aug-27 22:00N 84°54' E 039°24'11 5.7 100 / 141018.1 -2.3-2.6-1.7
2015-Aug-27 20:00N 84°48' E 037°36'8 8.1 110 / 121017.9 -2.2-2.4-1.8
2015-Aug-27 19:00N 84°42' E 036°36'5 5.0 100 / 121017.9 -2.4-2.6-1.7
2015-Aug-27 18:00N 84°42' E 035°42'5 5.0 110 / 121018.0 0.5 -2.7-3.0-1.8
2015-Aug-27 17:00N 84°42' E 034°48'11 5.6 110 / 121018.1 -3.1-3.5-1.8
2015-Aug-27 15:00N 84°36' E 033°06'5 4.5 110 / 101018.2 1.1 -4.1-5.0-1.7
2015-Aug-27 14:00N 84°36' E 032°18'8 7.9 100 / 101018.4 -4.3-4.8-1.7
2015-Aug-27 13:00N 84°30' E 031°24'10 5.0 090 / 101018.2 -4.1-4.6-1.7
2015-Aug-27 11:00N 84°24' E 030°00'2 1.8 090 / 101018.2 -4.0-4.5-1.8
2015-Aug-27 10:00N 84°24' E 029°42'1 1.2 090 / 101018.2 -4.0-4.6-1.7
2015-Aug-27 09:00N 84°24' E 029°30'1 0.3 100 / 81018.5 2.2 -4.0-4.7-1.7
2015-Aug-27 07:00N 84°24' E 029°36'1 0.2 090 / 101018.0 -4.3-4.6-1.7
2015-Aug-27 04:00N 84°24' E 029°42'1 0.6 080 / 101018.1 -4.6-5.3-1.7
2015-Aug-27 03:00N 84°24' E 029°48'0 0.0 070 / 121018.2 -4.8-5.5-1.7
2015-Aug-27 02:00N 84°24' E 029°48'1 0.2 080 / 121018.4 -4.8-5.4-1.7
2015-Aug-26 23:00N 84°24' E 029°54'1 0.4 060 / 121018.4 -4.9-5.6-1.6
2015-Aug-26 20:00N 84°24' E 030°06'0 0.0 040 / 141018.2 -5.1-5.9-1.6
2015-Aug-26 19:00N 84°24' E 030°06'1 0.6 050 / 161018.2 -5.3-6.2-1.7
2015-Aug-26 17:00N 84°24' E 030°18'1 0.3 050 / 141018.5 -5.2-5.9-1.6
2015-Aug-26 15:00N 84°24' E 030°24'1 0.6 040 / 171018.7 2.2 -5.0-5.5-1.7
2015-Aug-26 14:00N 84°24' E 030°30'0 0.0 040 / 161018.8 -5.2-6.0-1.7
2015-Aug-26 13:00N 84°24' E 030°30'1 0.3 040 / 171018.8 -5.3-6.0-1.6
2015-Aug-26 11:00N 84°24' E 030°36'1 0.3 030 / 191018.8 -5.3-5.7-1.7
2015-Aug-26 09:00N 84°24' E 030°42'1 0.6 030 / 191019.1 1.1 -5.7-6.1-1.6
2015-Aug-26 08:00N 84°24' E 030°48'1 1.2 030 / 171019.1 -5.2-5.8-1.7
2015-Aug-26 07:00N 84°24' E 031°00'12 6.0 030 / 161018.8 -5.5-6.1-1.7
2015-Aug-26 05:00N 84°12' E 031°00'0 0.0 030 / 171019.3 -5.2-5.8-1.7
2015-Aug-26 04:00N 84°12' E 031°00'6 6.1 040 / 191019.4 -5.0-5.6-1.7
2015-Aug-26 03:00N 84°06' E 030°48'6 6.0 030 / 191019.5 -4.9-5.3-1.7
2015-Aug-26 02:00N 84°00' E 030°42'1 0.6 030 / 191019.7 -5.0-5.4-1.6
2015-Aug-26 01:00N 84°00' E 030°48'0 0.0 030 / 171020.0 -4.7-5.4-1.6
2015-Aug-26 00:00N 84°00' E 030°48'1 0.6 030 / 211020.1 -4.8-5.2-1.6
2015-Aug-25 23:00N 84°00' E 030°54'6 6.0 020 / 191020.3 -4.3-4.9-1.6
2015-Aug-25 22:00N 83°54' E 031°00'0 0.0 040 / 191020.3 -4.0-5.2-1.6
2015-Aug-25 21:00N 83°54' E 031°00'7 6.5 030 / 211020.1 -3.8-5.0-1.6
2015-Aug-25 20:00N 83°48' E 030°36'8 3.8 020 / 191020.6 -3.4-4.1-1.7
2015-Aug-25 18:00N 83°42' E 029°54'1 0.7 030 / 191020.810.8 -3.1-3.7-1.6
2015-Aug-25 17:00N 83°42' E 030°00'1 0.7 020 / 171021.1 -2.9-3.7-1.6
2015-Aug-25 16:00N 83°42' E 030°06'1 0.7 020 / 191021.5 -2.7-3.8-1.6
2015-Aug-25 15:00N 83°42' E 030°12'0 0.0 020 / 191021.610.8 -2.4-3.6-1.6
2015-Aug-25 14:00N 83°42' E 030°12'1 0.3 020 / 191021.7 -1.8-3.5-1.6
2015-Aug-25 12:00N 83°42' E 030°18'0 0.0 010 / 191022.010.8 -1.9-3.0-1.6
2015-Aug-25 11:00N 83°42' E 030°18'1 0.7 010 / 171022.2 -2.0-3.0-1.6
2015-Aug-25 10:00N 83°42' E 030°24'0 0.0 010 / 191022.4 -1.8-2.7-1.6
2015-Aug-25 09:00N 83°42' E 030°24'7 3.4 020 / 171022.610.8 -2.1-3.1-1.6
2015-Aug-25 07:00N 83°36' E 030°54'0 0.0 020 / 171022.4 -2.1-2.6-1.6
2015-Aug-25 06:00N 83°36' E 030°54'6 6.0 030 / 161022.410.8 -2.4-3.1-1.6
2015-Aug-25 05:00N 83°30' E 030°54'6 6.0 030 / 161022.5 -2.5-3.0-1.6
2015-Aug-25 04:00N 83°24' E 030°48'0 0.0 030 / 171022.4 -2.7-3.3-1.6
2015-Aug-25 03:00N 83°24' E 030°48'0 0.0 020 / 171022.9 -2.6-3.2-1.4
2015-Aug-25 02:00N 83°24' E 030°48'1 0.7 020 / 161022.7 -2.3-2.7-1.5
2015-Aug-25 01:00N 83°24' E 030°54'6 6.0 020 / 161023.0 -2.1-2.6-1.4
2015-Aug-25 00:00N 83°18' E 030°54'1 0.7 020 / 171022.9 -2.0-2.7-1.5
2015-Aug-24 23:00N 83°18' E 031°00'6 6.0 020 / 171023.0 -2.4-3.0-1.4
2015-Aug-24 22:00N 83°12' E 030°54'6 6.0 010 / 161023.0 -2.6-3.0-1.5
2015-Aug-24 21:00N 83°06' E 030°54'6 6.0 020 / 161022.9 -2.7-3.0-1.6
2015-Aug-24 20:00N 83°00' E 030°48'0 0.0 020 / 161022.9 -2.7-2.8-1.4
2015-Aug-24 19:00N 83°00' E 030°48'1 0.7 030 / 161023.0 -2.6-2.9-1.4
2015-Aug-24 18:00N 83°00' E 030°54'1 0.7 030 / 161023.210.8 -2.5-2.7-1.3
2015-Aug-24 17:00N 83°00' E 031°00'1 0.7 030 / 141023.1 -2.8-3.0-1.5
2015-Aug-24 16:00N 83°00' E 031°06'6 6.4 040 / 141023.0 -2.8-3.3-1.5
2015-Aug-24 15:00N 82°54' E 030°48'6 6.2 030 / 121022.9 5.4 -3.1-3.3-1.5
2015-Aug-24 14:00N 82°48' E 030°36'6 6.0 050 / 121022.7 -3.4-3.5-1.3
2015-Aug-24 13:00N 82°42' E 030°36'0 0.0 050 / 121022.4 -3.8-4.3-1.3
2015-Aug-24 12:00N 82°42' E 030°36'0 0.0 060 / 141022.3 5.4 -3.9-4.2-1.3
2015-Aug-24 11:00N 82°42' E 030°36'1 0.8 060 / 141021.8 -3.6-3.9-1.3
2015-Aug-24 10:00N 82°42' E 030°42'1 0.4 070 / 141021.5 -3.8-4.1-1.3
2015-Aug-24 08:00N 82°42' E 030°48'0 0.0 070 / 121021.1 -3.7-3.9-1.3
2015-Aug-24 06:00N 82°42' E 030°48'0 0.0 030 / 61020.510.8 -3.7-4.0-1.3
2015-Aug-24 05:00N 82°42' E 030°48'1 0.8 050 / 81020.3 -4.4-4.9-1.2
2015-Aug-24 04:00N 82°42' E 030°54'0 0.0 050 / 101020.3 -4.4-4.8-1.3
2015-Aug-24 03:00N 82°42' E 030°54'   060 / 101020.5 -4.1-4.3-1.3
Track history (hours):
 
Tides and Currents Weather Stations Pressure Air Temp Water Temp Dewpoint Dewpoint Depression Visibility Wind Speed Wind Dir Waves Ship Positions

Oceanographic research ship Polarstern (Germany)

Detailed information on ship capabilities available from University of Delaware's Ocean Information Center and ARCUS's ALIAS (Arctic Logistics Information and Support) project.

Last reported at 2015-Sep-03 03:00 UTC. Time now 2015-Sep-03 04:33 UTC.
Position N 87°00' E 055°54'.

Length 117.9 m; beam 25 m; draft 10.7 m.

MMSI: 211202460.

Wind from 350 at 8 knots

Barometer 1007.9 mb
Air temperature -2.3 ° C
Dewpoint -2.4 ° C
Water temperature -1.7 ° C

Date/timePositionNaut miles runAvg speedWind from/ knotsBaromVisibWave heightAir tempDewpointWater temp
2015-Sep-03 03:00N 87°00' E 055°54'0 0.3 350 / 81007.9 -2.3-2.4-1.7
2015-Sep-03 02:00N 87°00' E 056°00'3 3.1 350 / 101007.6 -2.2-2.3-1.8
2015-Sep-03 01:00N 87°00' E 057°00'2 2.2 350 / 101007.6 -2.2-2.2-1.8
2015-Sep-03 00:00N 87°00' E 057°42'2 1.6 320 / 81007.5 -2.2-2.3-1.8
2015-Sep-02 23:00N 87°00' E 058°12'0 0.0 320 / 81007.6 -2.5-2.9-1.7
2015-Sep-02 22:00N 87°00' E 058°12'0 0.0 330 / 101007.6 -2.9-3.1-1.7
2015-Sep-02 21:00N 87°00' E 058°12'0 0.3 330 / 101007.6 -2.3-2.4-1.7
2015-Sep-02 20:00N 87°00' E 058°18'0 0.0 320 / 101007.5 -2.1-2.3-1.7
2015-Sep-02 19:00N 87°00' E 058°18'1 0.3 330 / 121007.5 -2.4-2.7-1.7
2015-Sep-02 17:00N 87°00' E 058°30'1 0.9 310 / 161007.7 -2.5-2.5-1.8
2015-Sep-02 16:00N 87°00' E 058°48'0 0.0 310 / 161008.0 -2.8-2.9-1.7
2015-Sep-02 14:00N 87°00' E 058°48'0 0.0 310 / 171008.6 -3.0-3.2-1.7
2015-Sep-02 13:00N 87°00' E 058°48'0 0.0 300 / 171009.0 -3.3-3.5-1.7
2015-Sep-02 12:00N 87°00' E 058°48'0 0.0 300 / 191009.5 1.1 -3.4-3.6-1.6
2015-Sep-02 11:00N 87°00' E 058°48'0 0.3 290 / 171009.9 -3.5-3.7-1.7
2015-Sep-02 10:00N 87°00' E 058°42'0 0.0 300 / 171010.5 -3.6-3.8-1.7
2015-Sep-02 09:00N 87°00' E 058°42'0 0.1 310 / 171011.0 5.4 -3.9-4.3-1.7
2015-Sep-02 06:00N 87°00' E 058°36'0 0.0 300 / 171011.9 5.4 -2.5-2.7-1.7
2015-Sep-02 05:00N 87°00' E 058°36'6 2.1 310 / 191012.5 -2.3-2.5-1.7
2015-Sep-02 02:00N 86°54' E 059°18'6 3.2 310 / 191013.8 -2.8-3.0-1.8
2015-Sep-02 00:00N 86°48' E 060°00'1 0.7 290 / 161014.7 -3.9-4.1-1.8
2015-Sep-01 23:00N 86°48' E 060°12'1 1.3 290 / 161015.1 -5.1-5.8-1.8
2015-Sep-01 22:00N 86°48' E 060°36'6 6.1 300 / 141015.6 -5.4-5.9-1.8
2015-Sep-01 21:00N 86°42' E 060°54'1 0.7 300 / 121016.0 -5.8-6.0-1.8
2015-Sep-01 20:00N 86°42' E 061°06'0 0.0 320 / 121016.1 -5.5-5.8-1.7
2015-Sep-01 19:00N 86°42' E 061°06'0 0.3 330 / 161016.3 -6.7-7.2-1.7
2015-Sep-01 18:00N 86°42' E 061°12'0 0.3 320 / 161016.5 0.5 -5.6-5.9-1.7
2015-Sep-01 17:00N 86°42' E 061°18'0 0.0 330 / 121016.4 -5.7-6.3-1.7
2015-Sep-01 16:00N 86°42' E 061°18'0 0.3 340 / 101016.4 -4.2-4.7-1.7
2015-Sep-01 15:00N 86°42' E 061°24'6 3.0 350 / 121016.6 5.4 -3.2-3.3-1.7
2015-Sep-01 13:00N 86°36' E 061°24'6 6.0 010 / 81016.3 -2.7-3.0-1.7
2015-Sep-01 12:00N 86°30' E 061°18'2 1.8 020 / 81016.0 2.2 -2.4-2.5-1.8
2015-Sep-01 11:00N 86°30' E 060°48'6 6.2 030 / 61015.8 -2.8-3.1-1.8
2015-Sep-01 10:00N 86°24' E 060°24'1 0.8 040 / 81015.8 -2.8-3.1-1.8
2015-Sep-01 09:00N 86°24' E 060°12'0 0.0 010 / 81015.4 2.2 -2.8-2.9-1.7
2015-Sep-01 08:00N 86°24' E 060°12'0 0.0 360 / 81015.0 -3.0-3.2-1.7
2015-Sep-01 07:00N 86°24' E 060°12'0 0.0 350 / 101014.7 -3.5-3.5-1.7
2015-Sep-01 06:00N 86°24' E 060°12'1 1.1 340 / 101014.5 2.2 -3.8-4.2-1.8
2015-Sep-01 05:00N 86°24' E 059°54'6 6.1 330 / 121014.5 -4.5-4.8-1.8
2015-Sep-01 04:00N 86°18' E 059°36'0 0.2 330 / 121014.5 -5.1-5.5-1.7
2015-Sep-01 02:00N 86°18' E 059°30'6 6.4 330 / 161014.7 -6.0-6.6-1.8
2015-Sep-01 01:00N 86°12' E 060°06'6 6.2 320 / 161014.9 -6.1-6.8-1.8
2015-Sep-01 00:00N 86°06' E 059°42'0 0.4 320 / 171014.9 -6.5-7.1-1.8
2015-Aug-31 23:00N 86°06' E 059°48'0 0.0 320 / 161015.2 -6.4-6.9-1.7
2015-Aug-31 22:00N 86°06' E 059°48'0 0.0 320 / 141015.4 -6.5-7.1-1.7
2015-Aug-31 21:00N 86°06' E 059°48'0 0.0 330 / 161015.4 -6.1-6.8-1.7
2015-Aug-31 20:00N 86°06' E 059°48'0 0.0 330 / 161015.5 -6.1-6.5-1.7
2015-Aug-31 19:00N 86°06' E 059°48'0 0.0 340 / 141015.6 -6.2-6.5-1.8
2015-Aug-31 18:00N 86°06' E 059°48'0 0.4 340 / 161015.8 5.4 -6.7-7.1-1.7
2015-Aug-31 17:00N 86°06' E 059°54'0 0.0 350 / 161016.0 -6.7-7.1-1.8
2015-Aug-31 16:00N 86°06' E 059°54'0 0.4 350 / 141015.8 -6.9-7.4-1.8
2015-Aug-31 15:00N 86°06' E 060°00'2 2.0 350 / 141015.9 5.4 -6.8-7.3-1.8
2015-Aug-31 14:00N 86°06' E 060°30'1 0.8 350 / 161015.5 -6.2-7.1-1.8
2015-Aug-31 13:00N 86°06' E 060°18'0 0.4 360 / 171015.6 -6.1-6.7-1.8
2015-Aug-31 12:00N 86°06' E 060°12'6 6.1 360 / 171015.5 5.4 -5.6-6.3-1.8
2015-Aug-31 11:00N 86°00' E 060°00'0 0.4 360 / 171015.7 -5.8-6.2-1.8
2015-Aug-31 10:00N 86°00' E 059°54'0 0.0 360 / 171015.4 -5.9-6.8-1.8
2015-Aug-31 09:00N 86°00' E 059°54'0 0.4 360 / 141015.1 1.1 -5.3-5.7-1.8
2015-Aug-31 08:00N 86°00' E 060°00'6 6.0 010 / 141014.8 -4.6-5.5-1.8
2015-Aug-31 07:00N 85°54' E 059°54'1 0.9 020 / 161014.8 -4.7-5.2-1.8
2015-Aug-31 06:00N 85°54' E 059°42'2 1.7 030 / 141014.7 5.4 -4.8-5.8-1.8
2015-Aug-31 05:00N 85°54' E 060°06'6 6.0 020 / 141014.5 -5.4-6.2-1.8
2015-Aug-31 04:00N 85°48' E 060°00'0 0.2 010 / 141014.5 -5.7-6.6-1.8
2015-Aug-31 02:00N 85°48' E 060°06'0 0.2 030 / 141014.2 -4.7-5.2-1.8
2015-Aug-31 00:00N 85°48' E 060°00'2 1.8 030 / 141013.8 -3.3-3.6-1.8
2015-Aug-30 23:00N 85°48' E 060°24'6 3.2 040 / 121013.6 -3.6-4.0-1.8
2015-Aug-30 21:00N 85°42' E 059°54'6 6.0 040 / 141013.1 -6.5-7.6-1.8
2015-Aug-30 20:00N 85°36' E 059°54'0 0.5 050 / 161012.5 -7.1-8.0-1.8
2015-Aug-30 19:00N 85°36' E 059°48'0 0.5 060 / 141012.1 -5.4-6.0-1.8
2015-Aug-30 18:00N 85°36' E 059°54'0 0.5 060 / 161011.8 5.4 -5.4-6.0-1.8
2015-Aug-30 17:00N 85°36' E 060°00'1 0.9 060 / 161011.4 -4.6-5.1-1.8
2015-Aug-30 16:00N 85°36' E 060°12'1 1.4 050 / 161011.2 -4.1-4.7-1.8
2015-Aug-30 15:00N 85°36' E 060°30'6 6.2 040 / 141010.7 2.2 -5.1-5.6-1.8
2015-Aug-30 14:00N 85°30' E 060°12'1 0.3 040 / 141010.4 -6.0-6.9-1.8
2015-Aug-30 11:00N 85°30' E 060°24'0 0.0 040 / 81010.0 -5.9-6.8-1.8
2015-Aug-30 10:00N 85°30' E 060°24'0 0.0 050 / 101009.8 -6.7-7.6-1.8
2015-Aug-30 09:00N 85°30' E 060°24'6 6.1 060 / 121009.510.8 -6.5-7.1-1.8
2015-Aug-30 08:00N 85°24' E 060°12'6 3.2 080 / 121009.3 -5.3-5.9-1.8
2015-Aug-30 06:00N 85°18' E 059°48'0 0.0 080 / 141008.8 2.2 -4.9-5.3-1.8
2015-Aug-30 05:00N 85°18' E 059°48'0 0.5 080 / 141008.7 -4.9-5.2-1.7
2015-Aug-30 04:00N 85°18' E 059°54'0 0.0 090 / 141008.6 -4.4-4.9-1.8
2015-Aug-30 03:00N 85°18' E 059°54'0 0.0 090 / 141008.8 -4.3-4.6-1.8
2015-Aug-30 02:00N 85°18' E 059°54'0 0.0 080 / 121009.0 -4.8-5.2-1.7
2015-Aug-30 01:00N 85°18' E 059°54'0 0.0 100 / 121009.3 -5.3-5.7-1.8
2015-Aug-30 00:00N 85°18' E 059°54'0 0.0 110 / 121009.6 -5.0-5.4-1.7
2015-Aug-29 23:00N 85°18' E 059°54'0 0.0 120 / 121010.0 -5.1-5.4-1.7
2015-Aug-29 22:00N 85°18' E 059°54'0 0.0 130 / 101010.0 -4.7-5.0-1.8
2015-Aug-29 21:00N 85°18' E 059°54'0 0.0 150 / 121010.3 -4.8-5.2-1.8
2015-Aug-29 20:00N 85°18' E 059°54'0 0.2 140 / 121010.6 -4.6-5.1-1.8
2015-Aug-29 18:00N 85°18' E 060°00'0 0.2 160 / 101011.3 2.2 -4.8-5.3-1.7
2015-Aug-29 16:00N 85°18' E 060°06'0 0.5 170 / 101012.1 -5.5-5.9-1.7
2015-Aug-29 15:00N 85°18' E 060°00'0 0.0 190 / 121012.3 5.4 -6.1-6.8-1.7
2015-Aug-29 14:00N 85°18' E 060°00'7 6.7 180 / 121012.4 -7.2-7.8-1.8
2015-Aug-29 13:00N 85°12' E 059°24'7 6.7 190 / 141012.6 -5.9-6.3-1.8
2015-Aug-29 12:00N 85°18' E 058°48'9 4.7 200 / 141012.5 2.2 -4.3-4.8-1.8
2015-Aug-29 10:00N 85°18' E 056°54'4 3.9 130 / 161012.7 -1.4-1.5-1.8
2015-Aug-29 09:00N 85°18' E 056°06'7 6.7 120 / 161012.7 2.2 -1.5-1.8-1.8
2015-Aug-29 08:00N 85°12' E 055°30'7 3.5 110 / 161013.0 -1.7-1.9-1.8
2015-Aug-29 06:00N 85°12' E 054°06'8 7.8 110 / 171013.6 2.2 -1.7-1.7-1.8
2015-Aug-29 05:00N 85°18' E 053°06'6 6.5 110 / 161014.0 -1.6-1.8-1.8
2015-Aug-29 04:00N 85°12' E 052°36'6 5.5 100 / 161014.5 -1.8-1.8-1.8
2015-Aug-29 03:00N 85°12' E 051°30'5 5.0 110 / 141014.7 -1.9-2.0-1.8
2015-Aug-29 02:00N 85°12' E 050°30'3 3.0 110 / 141015.2 -2.2-2.3-1.8
2015-Aug-29 01:00N 85°12' E 049°54'6 5.5 110 / 161015.3 -2.3-2.8-1.8
2015-Aug-29 00:00N 85°12' E 048°48'9 4.6 120 / 161015.7 -2.2-2.4-1.8
2015-Aug-28 22:00N 85°06' E 047°24'3 3.1 110 / 161015.7 -2.7-2.8-1.8
2015-Aug-28 21:00N 85°06' E 046°48'5 5.1 110 / 161016.0 -2.8-3.4-1.8
2015-Aug-28 20:00N 85°06' E 045°48'6 5.6 110 / 171016.0 -2.8-3.2-1.8
2015-Aug-28 19:00N 85°06' E 044°42'4 3.6 110 / 171016.1 -3.0-3.3-1.8
2015-Aug-28 18:00N 85°06' E 044°00'3 3.1 110 / 191016.3 2.2 -2.7-3.0-1.8
2015-Aug-28 17:00N 85°06' E 043°24'4 4.1 110 / 171016.4 -2.5-2.9-1.8
2015-Aug-28 16:00N 85°06' E 042°36'2 1.5 110 / 171016.5 -2.3-2.8-1.8
2015-Aug-28 15:00N 85°06' E 042°18'1 0.5 120 / 171016.9 1.1 -2.0-2.3-1.7
2015-Aug-28 14:00N 85°06' E 042°24'0 0.0 110 / 161017.1 -1.7-1.9-1.7
2015-Aug-28 13:00N 85°06' E 042°24'0 0.0 100 / 141017.3 -2.0-2.1-1.7
2015-Aug-28 12:00N 85°06' E 042°24'1 0.5 100 / 141017.6 0.3 -2.7-3.0-1.7
2015-Aug-28 11:00N 85°06' E 042°30'0 0.0 100 / 161017.8 -3.2-3.6-1.7
2015-Aug-28 10:00N 85°06' E 042°30'0 0.0 100 / 171017.9 -3.4-4.1-1.7
2015-Aug-28 09:00N 85°06' E 042°30'1 0.5 110 / 141018.0 2.2 -2.6-3.0-1.7
2015-Aug-28 08:00N 85°06' E 042°36'0 0.0 110 / 141018.3 -2.7-3.1-1.7
2015-Aug-28 07:00N 85°06' E 042°36'0 0.0 100 / 161018.2 -2.9-3.3-1.7
2015-Aug-28 06:00N 85°06' E 042°36'1 0.5 110 / 161018.3 1.1 -2.6-2.8-1.7
2015-Aug-28 05:00N 85°06' E 042°42'1 1.0 110 / 161018.3 -2.5-2.8-1.7
2015-Aug-28 04:00N 85°06' E 042°30'7 6.5 110 / 141018.3 -2.6-2.8-1.8
2015-Aug-28 03:00N 85°00' E 042°00'1 1.0 100 / 161018.2 -2.7-3.1-1.8
2015-Aug-28 02:00N 85°00' E 041°48'2 2.1 110 / 161018.4 -2.7-3.1-1.8
2015-Aug-28 01:00N 85°00' E 041°24'7 7.0 110 / 161018.4 -2.7-2.9-1.8
2015-Aug-28 00:00N 84°54' E 040°42'4 3.7 110 / 141018.4 -2.8-3.2-1.8
2015-Aug-27 23:00N 84°54' E 040°00'3 3.2 120 / 141018.1 -2.5-2.6-1.8
2015-Aug-27 22:00N 84°54' E 039°24'11 5.7 100 / 141018.1 -2.3-2.6-1.7
2015-Aug-27 20:00N 84°48' E 037°36'8 8.1 110 / 121017.9 -2.2-2.4-1.8
2015-Aug-27 19:00N 84°42' E 036°36'5 5.0 100 / 121017.9 -2.4-2.6-1.7
2015-Aug-27 18:00N 84°42' E 035°42'5 5.0 110 / 121018.0 0.5 -2.7-3.0-1.8
2015-Aug-27 17:00N 84°42' E 034°48'11 5.6 110 / 121018.1 -3.1-3.5-1.8
2015-Aug-27 15:00N 84°36' E 033°06'5 4.5 110 / 101018.2 1.1 -4.1-5.0-1.7
2015-Aug-27 14:00N 84°36' E 032°18'8 7.9 100 / 101018.4 -4.3-4.8-1.7
2015-Aug-27 13:00N 84°30' E 031°24'10 5.0 090 / 101018.2 -4.1-4.6-1.7
2015-Aug-27 11:00N 84°24' E 030°00'2 1.8 090 / 101018.2 -4.0-4.5-1.8
2015-Aug-27 10:00N 84°24' E 029°42'1 1.2 090 / 101018.2 -4.0-4.6-1.7
2015-Aug-27 09:00N 84°24' E 029°30'1 0.3 100 / 81018.5 2.2 -4.0-4.7-1.7
2015-Aug-27 07:00N 84°24' E 029°36'1 0.2 090 / 101018.0 -4.3-4.6-1.7
2015-Aug-27 04:00N 84°24' E 029°42'1 0.6 080 / 101018.1 -4.6-5.3-1.7
2015-Aug-27 03:00N 84°24' E 029°48'0 0.0 070 / 121018.2 -4.8-5.5-1.7
2015-Aug-27 02:00N 84°24' E 029°48'1 0.2 080 / 121018.4 -4.8-5.4-1.7
2015-Aug-26 23:00N 84°24' E 029°54'1 0.4 060 / 121018.4 -4.9-5.6-1.6
2015-Aug-26 20:00N 84°24' E 030°06'0 0.0 040 / 141018.2 -5.1-5.9-1.6
2015-Aug-26 19:00N 84°24' E 030°06'1 0.6 050 / 161018.2 -5.3-6.2-1.7
2015-Aug-26 17:00N 84°24' E 030°18'1 0.3 050 / 141018.5 -5.2-5.9-1.6
2015-Aug-26 15:00N 84°24' E 030°24'1 0.6 040 / 171018.7 2.2 -5.0-5.5-1.7
2015-Aug-26 14:00N 84°24' E 030°30'0 0.0 040 / 161018.8 -5.2-6.0-1.7
2015-Aug-26 13:00N 84°24' E 030°30'1 0.3 040 / 171018.8 -5.3-6.0-1.6
2015-Aug-26 11:00N 84°24' E 030°36'1 0.3 030 / 191018.8 -5.3-5.7-1.7
2015-Aug-26 09:00N 84°24' E 030°42'1 0.6 030 / 191019.1 1.1 -5.7-6.1-1.6
2015-Aug-26 08:00N 84°24' E 030°48'1 1.2 030 / 171019.1 -5.2-5.8-1.7
2015-Aug-26 07:00N 84°24' E 031°00'12 6.0 030 / 161018.8 -5.5-6.1-1.7
2015-Aug-26 05:00N 84°12' E 031°00'0 0.0 030 / 171019.3 -5.2-5.8-1.7
2015-Aug-26 04:00N 84°12' E 031°00'6 6.1 040 / 191019.4 -5.0-5.6-1.7
2015-Aug-26 03:00N 84°06' E 030°48'6 6.0 030 / 191019.5 -4.9-5.3-1.7
2015-Aug-26 02:00N 84°00' E 030°42'1 0.6 030 / 191019.7 -5.0-5.4-1.6
2015-Aug-26 01:00N 84°00' E 030°48'0 0.0 030 / 171020.0 -4.7-5.4-1.6
2015-Aug-26 00:00N 84°00' E 030°48'1 0.6 030 / 211020.1 -4.8-5.2-1.6
2015-Aug-25 23:00N 84°00' E 030°54'6 6.0 020 / 191020.3 -4.3-4.9-1.6
2015-Aug-25 22:00N 83°54' E 031°00'0 0.0 040 / 191020.3 -4.0-5.2-1.6
2015-Aug-25 21:00N 83°54' E 031°00'7 6.5 030 / 211020.1 -3.8-5.0-1.6
2015-Aug-25 20:00N 83°48' E 030°36'8 3.8 020 / 191020.6 -3.4-4.1-1.7
2015-Aug-25 18:00N 83°42' E 029°54'1 0.7 030 / 191020.810.8 -3.1-3.7-1.6
2015-Aug-25 17:00N 83°42' E 030°00'1 0.7 020 / 171021.1 -2.9-3.7-1.6
2015-Aug-25 16:00N 83°42' E 030°06'1 0.7 020 / 191021.5 -2.7-3.8-1.6
2015-Aug-25 15:00N 83°42' E 030°12'0 0.0 020 / 191021.610.8 -2.4-3.6-1.6
2015-Aug-25 14:00N 83°42' E 030°12'1 0.3 020 / 191021.7 -1.8-3.5-1.6
2015-Aug-25 12:00N 83°42' E 030°18'0 0.0 010 / 191022.010.8 -1.9-3.0-1.6
2015-Aug-25 11:00N 83°42' E 030°18'1 0.7 010 / 171022.2 -2.0-3.0-1.6
2015-Aug-25 10:00N 83°42' E 030°24'0 0.0 010 / 191022.4 -1.8-2.7-1.6
2015-Aug-25 09:00N 83°42' E 030°24'7 3.4 020 / 171022.610.8 -2.1-3.1-1.6
2015-Aug-25 07:00N 83°36' E 030°54'0 0.0 020 / 171022.4 -2.1-2.6-1.6
2015-Aug-25 06:00N 83°36' E 030°54'6 6.0 030 / 161022.410.8 -2.4-3.1-1.6
2015-Aug-25 05:00N 83°30' E 030°54'6 6.0 030 / 161022.5 -2.5-3.0-1.6
2015-Aug-25 04:00N 83°24' E 030°48'0 0.0 030 / 171022.4 -2.7-3.3-1.6
2015-Aug-25 03:00N 83°24' E 030°48'0 0.0 020 / 171022.9 -2.6-3.2-1.4
2015-Aug-25 02:00N 83°24' E 030°48'1 0.7 020 / 161022.7 -2.3-2.7-1.5
2015-Aug-25 01:00N 83°24' E 030°54'6 6.0 020 / 161023.0 -2.1-2.6-1.4
2015-Aug-25 00:00N 83°18' E 030°54'1 0.7 020 / 171022.9 -2.0-2.7-1.5
2015-Aug-24 23:00N 83°18' E 031°00'6 6.0 020 / 171023.0 -2.4-3.0-1.4
2015-Aug-24 22:00N 83°12' E 030°54'6 6.0 010 / 161023.0 -2.6-3.0-1.5
2015-Aug-24 21:00N 83°06' E 030°54'6 6.0 020 / 161022.9 -2.7-3.0-1.6
2015-Aug-24 20:00N 83°00' E 030°48'0 0.0 020 / 161022.9 -2.7-2.8-1.4
2015-Aug-24 19:00N 83°00' E 030°48'1 0.7 030 / 161023.0 -2.6-2.9-1.4
2015-Aug-24 18:00N 83°00' E 030°54'1 0.7 030 / 161023.210.8 -2.5-2.7-1.3
2015-Aug-24 17:00N 83°00' E 031°00'1 0.7 030 / 141023.1 -2.8-3.0-1.5
2015-Aug-24 16:00N 83°00' E 031°06'6 6.4 040 / 141023.0 -2.8-3.3-1.5
2015-Aug-24 15:00N 82°54' E 030°48'6 6.2 030 / 121022.9 5.4 -3.1-3.3-1.5
2015-Aug-24 14:00N 82°48' E 030°36'6 6.0 050 / 121022.7 -3.4-3.5-1.3
2015-Aug-24 13:00N 82°42' E 030°36'0 0.0 050 / 121022.4 -3.8-4.3-1.3
2015-Aug-24 12:00N 82°42' E 030°36'0 0.0 060 / 141022.3 5.4 -3.9-4.2-1.3
2015-Aug-24 11:00N 82°42' E 030°36'1 0.8 060 / 141021.8 -3.6-3.9-1.3
2015-Aug-24 10:00N 82°42' E 030°42'1 0.4 070 / 141021.5 -3.8-4.1-1.3
2015-Aug-24 08:00N 82°42' E 030°48'0 0.0 070 / 121021.1 -3.7-3.9-1.3
2015-Aug-24 06:00N 82°42' E 030°48'0 0.0 030 / 61020.510.8 -3.7-4.0-1.3
2015-Aug-24 05:00N 82°42' E 030°48'1 0.8 050 / 81020.3 -4.4-4.9-1.2
2015-Aug-24 04:00N 82°42' E 030°54'0 0.0 050 / 101020.3 -4.4-4.8-1.3
2015-Aug-24 03:00N 82°42' E 030°54'   060 / 101020.5 -4.1-4.3-1.3

Dump ship's entire track history